Rocky Hill, Texas
Current Conditions -  °F | °C
As of 10:51 PM on Sunday 21 Dec 2014 (Local Time) from KCNW Reporting Station
Overcast Overcast  
Wind Chill: 12°   Ceiling: 1300
Heat Index: 12°   Visibility: 10mi
Dew Point: 10°   Wind: 10mph
Humidity: 88%   Direction: 170°S
Pressure: 29.82"   Gusts: NA
Location:  31.3313°N, 96.8629°W
Report Text: KCNW 220451Z 17009KT 10SM OVC013 12/10 A2982
Loading
Personal Weather Stations






























Interactive Weather Map New forecast layout! Learn more

10-Day Weather Forecast

Advertisements
Track Severe Weather on mobile